首页
METAR-TAF:

METAR-TAF

机场 :

Fritzlar, 德国

纬度: 51-07N, 经度: 009-17E, 海拔: 172米

当前天气观测

该预报发布于1小时和10分钟前的05:20 UTC
风速7节,风向南转西南
温度 4°C
湿度 87%
气压 1013 hPa
能见度10公里或以上
多云层高于6000英尺

METAR: ETHF 190520Z 20007KT 9999 BKN060 04/02 Q1013 BLU BLU

时间: 07:30 (06:30 UTC)

预报

该预报发布于1小时和7分钟前的05:23 UTC
预报有效从19日的 06点(UTC)到 19日的 15点(UTC)
风速8节,风向南转西南
能见度10公里或以上
少量云层高于1000英尺
散云层高于6000英尺
几率 30%
从 19日的 06点(UTC)到 19日的 10点(UTC)
风速5节,风向南转西南
能見度: 8000
多云层高于800英尺

TAF: ETHF 190523Z 1906/1915 21008KT 9999 NSW FEW010 SCT060 PROB30 1906/1910 20005KT 8000 NSW BKN008

超过4000个机场的气象观测和天气预报(METAR&TAF报告)。

可查询的气象台以黄色和红色小点在地图上表示。

将鼠标移到小点上方,可查看气象台名称。

然后点击查看天气观测和预报。

如需切换地图:点击带黑十字的绿色按钮放大地图;点击带横线的绿色按钮缩小地图;或者点击绿色箭头查看邻近地区的地图。


METAR-TAF: